Halsey, OR (97348)

11:33 PM PDT on September 30, 2016 (GMT -0700)
NM Scheffel Farms | | Change Station

Elev 289 ft 44.35 °N, 123.17 °W | Updated 18 seconds ago

Mostly Cloudy
Mostly Cloudy
53.2 °F
Feels Like 53.2 °F
N
0.0
Wind Variable Wind from SSW

Today
High -- | Low -- °F
--% Chance of Precip.
Yesterday
High -- | Low -- °F
Precip. -- in
Pressure 30.03 in
Visibility 10.0 miles
Clouds Mostly Cloudy 6000 ft
Dew Point 46 °F
Humidity 79%
Rainfall 0.00 in
Snow Depth Not available.
7:09 AM 6:53 PM
New Moon, 0% visible
METAR KEUG 010554Z 19005KT 10SM BKN060 12/07 A3003 RMK AO2 SLP169 60000 T01170067 10172 20100 58001
Pressure 30.03 in
Visibility 10.0 miles
Clouds Mostly Cloudy 6000 ft
Dew Point 46 °F
Humidity 79%
Rainfall 0.00 in
Snow Depth Not available.
7:09 AM 6:53 PM
New Moon, 0% visible
METAR KEUG 010554Z 19005KT 10SM BKN060 12/07 A3003 RMK AO2 SLP169 60000 T01170067 10172 20100 58001

10-Day Weather Forecast

Almanac

Astronomy

Sep. 30, 2016 Rise Set
Actual Time
Civil Twilight
Nautical Twilight
Astronomical Twilight
Moon
Length of Visible Light
Length of Day
Tomorrow will be .
, % of the Moon is Illuminated

Today's Extremes

State Highs State Lows

Community

WunderPhotos

Upload Photos

1,942,898 photos uploaded!

WunderBlog® & News

Nearby

Air Quality

  Air Quality AQ Index Pollutant
Not available.

Snow Depth

Station Depth Elevation

Earthquake Activity

City Distance Mag. Time & Date
Minimum magnitude displayed is 2.5.

Coastal Water Temperatures

Place Temperature

Stations

Nearby Weather Stations

Station Location Temp. Windchill Dew Point Humidity Wind Precip. Elev Updated Type
                   

Watches & Warnings

There are currently no watches in effect.